createdAt,value
2019-03-29T00:01:26.650Z,10.28
2019-03-29T00:03:53.314Z,8.47
2019-03-29T00:06:19.569Z,10.24
2019-03-29T00:08:45.882Z,10.23
2019-03-29T00:11:13.000Z,10.23
2019-03-29T00:13:39.250Z,10.22
2019-03-29T00:16:05.381Z,10.22
2019-03-29T00:18:32.270Z,10.22
2019-03-29T00:20:58.960Z,10.22
2019-03-29T00:23:25.081Z,10.21
2019-03-29T00:25:51.376Z,10.20
2019-03-29T00:28:17.705Z,10.19
2019-03-29T00:30:44.170Z,10.17
2019-03-29T00:33:10.858Z,10.16
2019-03-29T00:35:37.277Z,10.17
2019-03-29T00:38:04.046Z,10.17
2019-03-29T00:40:32.539Z,10.17
2019-03-29T00:43:00.185Z,8.78
2019-03-29T00:45:26.364Z,10.18
2019-03-29T00:47:52.922Z,10.17
2019-03-29T00:50:19.344Z,10.17
2019-03-29T00:52:45.652Z,8.81
2019-03-29T00:55:12.462Z,10.15
2019-03-29T00:57:38.873Z,10.16
2019-03-29T01:00:06.998Z,10.14
2019-03-29T01:02:33.968Z,10.11
2019-03-29T01:05:00.305Z,10.07
2019-03-29T01:07:26.527Z,10.05
2019-03-29T01:09:53.345Z,9.99
2019-03-29T01:12:19.732Z,9.93
2019-03-29T01:14:45.932Z,9.87
2019-03-29T01:17:12.354Z,9.85
2019-03-29T01:19:38.551Z,8.42
2019-03-29T01:22:05.256Z,9.83
2019-03-29T01:24:32.889Z,9.82
2019-03-29T01:26:59.085Z,9.82
2019-03-29T01:29:25.246Z,8.47
2019-03-29T01:31:51.755Z,9.78
2019-03-29T01:34:17.935Z,8.57
2019-03-29T01:36:44.214Z,9.70
2019-03-29T01:39:10.631Z,9.69
2019-03-29T01:41:36.770Z,9.70
2019-03-29T01:44:03.649Z,9.71
2019-03-29T01:46:31.180Z,9.72
2019-03-29T01:48:57.908Z,9.74
2019-03-29T01:51:25.209Z,9.73
2019-03-29T01:53:51.341Z,9.71
2019-03-29T01:56:18.203Z,9.70
2019-03-29T01:58:44.378Z,9.68
2019-03-29T02:01:11.127Z,9.69
2019-03-29T02:03:37.840Z,9.70
2019-03-29T02:06:03.971Z,7.02
2019-03-29T02:08:36.018Z,9.70
2019-03-29T02:10:58.993Z,9.70
2019-03-29T02:13:26.012Z,9.69
2019-03-29T02:15:52.346Z,9.68
2019-03-29T02:18:18.911Z,9.65
2019-03-29T02:20:45.265Z,9.63
2019-03-29T02:23:11.746Z,9.61
2019-03-29T02:25:38.384Z,9.59
2019-03-29T02:28:05.636Z,9.58
2019-03-29T02:30:32.575Z,9.56
2019-03-29T02:32:59.168Z,9.58
2019-03-29T02:35:27.672Z,9.59
2019-03-29T02:37:56.366Z,9.59
2019-03-29T02:40:23.658Z,9.58
2019-03-29T02:42:49.796Z,9.58
2019-03-29T02:45:16.068Z,9.55
2019-03-29T02:47:42.754Z,9.55
2019-03-29T02:50:09.289Z,9.53
2019-03-29T02:52:35.418Z,9.53
2019-03-29T02:55:01.924Z,9.51
2019-03-29T02:57:28.051Z,9.50
2019-03-29T02:59:54.733Z,9.49
2019-03-29T03:02:21.211Z,9.50
2019-03-29T03:04:47.724Z,9.50
2019-03-29T03:07:14.336Z,9.50
2019-03-29T03:09:41.190Z,9.51
2019-03-29T03:12:08.251Z,9.51
2019-03-29T03:14:34.712Z,9.49
2019-03-29T03:17:01.177Z,9.46
2019-03-29T03:19:27.725Z,9.45
2019-03-29T03:21:54.450Z,9.43
2019-03-29T03:24:20.571Z,9.43
2019-03-29T03:26:47.288Z,9.43
2019-03-29T03:29:13.531Z,9.43
2019-03-29T03:31:39.804Z,9.44
2019-03-29T03:34:06.337Z,9.44
2019-03-29T03:36:32.556Z,9.45
2019-03-29T03:38:58.755Z,9.46
2019-03-29T03:41:25.535Z,9.47
2019-03-29T03:43:52.217Z,9.48
2019-03-29T03:46:18.395Z,9.49
2019-03-29T03:48:45.019Z,9.49
2019-03-29T03:51:11.310Z,9.49
2019-03-29T03:53:37.449Z,9.50
2019-03-29T03:56:04.510Z,9.49
2019-03-29T03:58:31.035Z,9.47
2019-03-29T04:00:57.595Z,9.48
2019-03-29T04:03:24.608Z,9.47
2019-03-29T04:05:51.034Z,9.46
2019-03-29T04:08:18.190Z,9.45
2019-03-29T04:10:44.415Z,9.45
2019-03-29T04:13:10.871Z,9.45
2019-03-29T04:15:37.729Z,9.46
2019-03-29T04:18:03.900Z,9.44
2019-03-29T04:20:30.245Z,9.44
2019-03-29T04:22:56.997Z,9.44
2019-03-29T04:25:23.125Z,9.43
2019-03-29T04:27:49.294Z,9.40
2019-03-29T04:30:16.221Z,7.64
2019-03-29T04:32:42.840Z,9.38
2019-03-29T04:35:09.004Z,9.37
2019-03-29T04:37:35.033Z,9.38
2019-03-29T04:40:07.571Z,9.39
2019-03-29T04:42:29.484Z,9.40
2019-03-29T04:44:58.097Z,9.40
2019-03-29T04:47:23.762Z,9.41
2019-03-29T04:49:50.015Z,9.41
2019-03-29T04:52:16.257Z,9.43
2019-03-29T04:54:43.052Z,9.42
2019-03-29T04:57:09.208Z,9.42
2019-03-29T04:59:35.490Z,9.44
2019-03-29T05:02:03.246Z,9.46
2019-03-29T05:04:29.435Z,9.45
2019-03-29T05:06:55.595Z,9.47
2019-03-29T05:09:22.162Z,9.49
2019-03-29T05:11:48.591Z,9.49
2019-03-29T05:14:16.736Z,9.49
2019-03-29T05:16:44.119Z,9.50
2019-03-29T05:19:10.358Z,9.52
2019-03-29T05:21:36.624Z,9.50
2019-03-29T05:24:03.368Z,9.48
2019-03-29T05:26:29.523Z,9.49
2019-03-29T05:28:55.919Z,9.51
2019-03-29T05:31:22.625Z,9.53
2019-03-29T05:33:48.822Z,9.55
2019-03-29T05:36:16.832Z,9.58
2019-03-29T05:38:43.143Z,9.62
2019-03-29T05:41:09.558Z,8.32
2019-03-29T05:43:35.723Z,9.70
2019-03-29T05:46:02.744Z,9.73
2019-03-29T05:48:29.036Z,9.75
2019-03-29T05:50:56.061Z,9.81
2019-03-29T05:53:22.347Z,9.84
2019-03-29T05:55:48.668Z,9.82
2019-03-29T05:58:14.795Z,9.84
2019-03-29T06:00:40.992Z,9.83
2019-03-29T06:03:09.979Z,9.84
2019-03-29T06:05:41.567Z,9.84
2019-03-29T06:08:08.993Z,9.86
2019-03-29T06:10:48.207Z,9.87
2019-03-29T06:13:05.176Z,9.90
2019-03-29T06:15:31.441Z,9.93
2019-03-29T06:17:58.018Z,9.95
2019-03-29T06:20:24.854Z,8.57
2019-03-29T06:22:51.046Z,9.96
2019-03-29T06:25:17.444Z,9.97
2019-03-29T06:27:44.113Z,9.98
2019-03-29T06:30:10.503Z,9.99
2019-03-29T06:32:36.722Z,10.01
2019-03-29T06:35:05.884Z,10.00
2019-03-29T06:37:33.396Z,9.99
2019-03-29T06:40:00.341Z,10.00
2019-03-29T06:42:27.304Z,10.04
2019-03-29T06:44:53.825Z,10.05
2019-03-29T06:47:20.151Z,8.75
2019-03-29T06:49:47.005Z,10.12
2019-03-29T06:52:13.166Z,10.17
2019-03-29T06:54:40.640Z,10.23
2019-03-29T06:57:07.665Z,10.27
2019-03-29T06:59:33.996Z,10.31
2019-03-29T07:02:00.330Z,10.36
2019-03-29T07:04:27.216Z,10.42
2019-03-29T07:06:53.473Z,10.46
2019-03-29T07:09:20.068Z,10.47
2019-03-29T07:11:46.153Z,10.52
2019-03-29T07:14:12.419Z,10.55
2019-03-29T07:16:38.922Z,10.58
2019-03-29T07:19:05.326Z,10.64
2019-03-29T07:21:31.628Z,10.70
2019-03-29T07:23:57.785Z,10.52
2019-03-29T07:26:24.047Z,10.82
2019-03-29T07:28:50.319Z,10.54
2019-03-29T07:31:16.928Z,10.85
2019-03-29T07:33:43.244Z,10.89
2019-03-29T07:36:09.379Z,9.62
2019-03-29T07:38:35.636Z,11.02
2019-03-29T07:41:02.067Z,11.12
2019-03-29T07:43:28.229Z,11.21
2019-03-29T07:45:54.879Z,11.34
2019-03-29T07:48:21.427Z,11.46
2019-03-29T07:50:47.601Z,11.50
2019-03-29T07:53:14.148Z,11.53
2019-03-29T07:55:40.559Z,11.66
2019-03-29T07:58:06.796Z,11.73
2019-03-29T08:00:33.533Z,11.29
2019-03-29T08:02:59.585Z,11.90
2019-03-29T08:05:26.401Z,12.04
2019-03-29T08:07:53.112Z,12.14
2019-03-29T08:10:27.377Z,12.20
2019-03-29T08:12:49.260Z,12.29
2019-03-29T08:15:16.010Z,11.10
2019-03-29T08:17:42.179Z,12.51
2019-03-29T08:20:37.187Z,12.60
2019-03-29T08:22:37.352Z,12.67
2019-03-29T08:25:03.856Z,12.79
2019-03-29T08:27:30.098Z,12.89
2019-03-29T08:29:56.278Z,12.92
2019-03-29T08:32:22.539Z,13.00
2019-03-29T08:34:50.385Z,13.03
2019-03-29T08:37:16.679Z,13.07
2019-03-29T08:39:43.055Z,13.05
2019-03-29T08:42:09.568Z,13.14
2019-03-29T08:44:35.848Z,13.27
2019-03-29T08:47:02.559Z,13.29
2019-03-29T08:49:28.700Z,13.27
2019-03-29T08:51:55.006Z,13.21
2019-03-29T08:54:21.186Z,13.18
2019-03-29T08:56:47.883Z,13.22
2019-03-29T08:59:17.222Z,13.20
2019-03-29T09:01:42.246Z,13.16
2019-03-29T09:04:10.034Z,13.12
2019-03-29T09:06:36.960Z,13.22
2019-03-29T09:09:05.830Z,13.39
2019-03-29T09:11:32.903Z,13.54
2019-03-29T09:13:59.011Z,13.62
2019-03-29T09:16:25.501Z,13.75
2019-03-29T09:18:51.809Z,13.83
2019-03-29T09:21:17.940Z,13.88
2019-03-29T09:23:44.426Z,13.95
2019-03-29T09:26:10.654Z,14.05
2019-03-29T09:28:37.074Z,14.10
2019-03-29T09:31:03.645Z,14.09
2019-03-29T09:33:29.915Z,14.16
2019-03-29T09:35:56.259Z,14.12
2019-03-29T09:38:22.842Z,14.05
2019-03-29T09:40:58.220Z,14.03
2019-03-29T09:43:17.681Z,14.10
2019-03-29T09:45:44.556Z,14.21
2019-03-29T09:48:10.831Z,14.23
2019-03-29T09:50:37.019Z,14.18
2019-03-29T09:53:03.501Z,14.13
2019-03-29T09:55:29.636Z,14.20
2019-03-29T09:57:55.879Z,14.28
2019-03-29T10:00:23.658Z,14.42
2019-03-29T10:02:50.086Z,14.52
2019-03-29T10:05:19.681Z,14.57
2019-03-29T10:07:44.382Z,14.64
2019-03-29T10:10:10.739Z,14.73
2019-03-29T10:12:43.471Z,14.82
2019-03-29T10:15:05.798Z,14.91
2019-03-29T10:17:31.971Z,14.99
2019-03-29T10:19:58.195Z,14.98
2019-03-29T10:22:24.421Z,15.00
2019-03-29T10:24:50.666Z,15.06
2019-03-29T10:27:18.958Z,15.12
2019-03-29T10:29:45.289Z,15.16
2019-03-29T10:32:11.590Z,15.18
2019-03-29T10:34:37.942Z,15.25
2019-03-29T10:37:04.133Z,15.32
2019-03-29T10:39:30.415Z,15.25
2019-03-29T10:41:56.790Z,15.13
2019-03-29T10:44:22.986Z,15.19
2019-03-29T10:46:49.475Z,15.31
2019-03-29T10:49:15.649Z,15.36
2019-03-29T10:51:41.828Z,15.33
2019-03-29T10:54:08.493Z,15.34
2019-03-29T10:56:34.960Z,15.37
2019-03-29T10:59:01.331Z,15.46
2019-03-29T11:01:27.901Z,15.36
2019-03-29T11:03:54.068Z,15.35
2019-03-29T11:06:20.536Z,15.41
2019-03-29T11:08:47.037Z,15.48
2019-03-29T11:11:13.299Z,15.59
2019-03-29T11:13:41.208Z,15.63
2019-03-29T11:16:07.955Z,15.66
2019-03-29T11:18:34.199Z,15.71
2019-03-29T11:21:00.520Z,15.83
2019-03-29T11:23:27.514Z,15.96
2019-03-29T11:25:54.169Z,16.03
2019-03-29T11:28:20.533Z,16.09
2019-03-29T11:30:47.184Z,16.10
2019-03-29T11:33:13.590Z,16.14
2019-03-29T11:35:39.936Z,16.20
2019-03-29T11:38:06.582Z,16.21
2019-03-29T11:40:32.802Z,16.16
2019-03-29T11:42:59.032Z,16.11
2019-03-29T11:45:26.071Z,16.16
2019-03-29T11:48:06.920Z,16.37
2019-03-29T11:50:20.456Z,16.49
2019-03-29T11:52:46.714Z,16.35
2019-03-29T11:55:12.852Z,16.42
2019-03-29T11:57:39.239Z,16.58
2019-03-29T12:00:08.719Z,16.78
2019-03-29T12:02:34.841Z,16.92
2019-03-29T12:05:01.055Z,17.12
2019-03-29T12:07:27.654Z,17.42
2019-03-29T12:09:54.499Z,17.80
2019-03-29T12:12:20.839Z,18.06
2019-03-29T12:14:47.252Z,17.97
2019-03-29T12:17:13.495Z,17.85
2019-03-29T12:19:40.687Z,17.65
2019-03-29T12:22:06.944Z,17.56
2019-03-29T12:24:33.582Z,17.71
2019-03-29T12:26:59.780Z,17.96
2019-03-29T12:29:25.975Z,18.24
2019-03-29T12:31:52.938Z,18.61
2019-03-29T12:34:19.647Z,18.74
2019-03-29T12:36:46.277Z,18.45
2019-03-29T12:39:13.191Z,18.17
2019-03-29T12:41:39.486Z,18.00
2019-03-29T12:44:05.698Z,17.96
2019-03-29T12:46:32.618Z,18.16
2019-03-29T12:48:59.099Z,18.47
2019-03-29T12:51:25.988Z,18.63
2019-03-29T12:53:52.757Z,18.55
2019-03-29T12:56:19.277Z,18.48
2019-03-29T12:58:45.613Z,18.45
2019-03-29T13:01:12.383Z,18.35
2019-03-29T13:03:38.766Z,18.20
2019-03-29T13:06:04.977Z,17.96
2019-03-29T13:08:31.497Z,17.86
2019-03-29T13:10:57.785Z,17.93
2019-03-29T13:13:24.253Z,18.17
2019-03-29T13:15:50.684Z,18.27
2019-03-29T13:18:16.830Z,18.33
2019-03-29T13:20:43.474Z,18.44
2019-03-29T13:23:09.652Z,18.54
2019-03-29T13:25:35.769Z,18.41
2019-03-29T13:28:02.206Z,18.47
2019-03-29T13:30:28.310Z,18.50
2019-03-29T13:32:54.514Z,18.48
2019-03-29T13:35:21.403Z,18.33
2019-03-29T13:37:48.352Z,18.08
2019-03-29T13:40:14.739Z,17.88
2019-03-29T13:42:41.073Z,17.75
2019-03-29T13:45:07.584Z,17.68
2019-03-29T13:47:34.617Z,17.59
2019-03-29T13:50:01.570Z,16.35
2019-03-29T13:52:31.144Z,17.35
2019-03-29T13:54:57.290Z,17.23
2019-03-29T13:57:24.220Z,17.16
2019-03-29T13:59:50.371Z,16.97
2019-03-29T14:02:19.179Z,16.80
2019-03-29T14:04:46.036Z,16.68
2019-03-29T14:07:12.559Z,16.60
2019-03-29T14:09:40.203Z,16.48
2019-03-29T14:12:06.983Z,16.46
2019-03-29T14:14:38.497Z,16.48
2019-03-29T14:17:01.339Z,16.48
2019-03-29T14:19:28.153Z,16.39
2019-03-29T14:21:54.377Z,16.37
2019-03-29T14:24:20.548Z,16.35
2019-03-29T14:26:47.552Z,16.34
2019-03-29T14:29:14.003Z,15.08
2019-03-29T14:31:40.203Z,16.35
2019-03-29T14:34:06.981Z,16.35
2019-03-29T14:36:33.329Z,16.31
2019-03-29T14:38:59.566Z,16.26
2019-03-29T14:41:26.057Z,16.21
2019-03-29T14:43:54.654Z,16.18
2019-03-29T14:46:21.380Z,16.11
2019-03-29T14:48:48.030Z,16.08
2019-03-29T14:51:14.665Z,16.08
2019-03-29T14:53:41.324Z,16.08
2019-03-29T14:56:08.139Z,16.04
2019-03-29T14:58:34.485Z,16.00
2019-03-29T15:01:02.781Z,15.96
2019-03-29T15:03:31.784Z,13.81
2019-03-29T15:06:01.778Z,15.92
2019-03-29T15:08:28.457Z,15.91
2019-03-29T15:10:55.759Z,15.84
2019-03-29T15:13:24.120Z,15.82
2019-03-29T15:15:53.290Z,15.84
2019-03-29T15:18:19.961Z,15.83
2019-03-29T15:20:53.220Z,14.63
2019-03-29T15:23:14.259Z,15.80
2019-03-29T15:25:41.856Z,15.77
2019-03-29T15:28:09.173Z,15.78
2019-03-29T15:30:36.582Z,15.76
2019-03-29T15:33:04.440Z,15.74
2019-03-29T15:35:31.296Z,15.73
2019-03-29T15:37:57.666Z,15.71
2019-03-29T15:40:23.925Z,15.70
2019-03-29T15:42:50.978Z,15.69
2019-03-29T15:45:20.683Z,13.36
2019-03-29T15:47:45.842Z,15.67
2019-03-29T15:50:12.006Z,15.63
2019-03-29T15:52:38.519Z,15.62
2019-03-29T15:55:05.701Z,15.61
2019-03-29T15:57:32.097Z,15.56
2019-03-29T15:59:58.373Z,15.54
2019-03-29T16:02:24.999Z,15.43
2019-03-29T16:04:51.170Z,15.38
2019-03-29T16:07:19.808Z,15.36
2019-03-29T16:09:52.893Z,15.30
2019-03-29T16:12:19.582Z,15.25
2019-03-29T16:14:45.903Z,15.22
2019-03-29T16:17:12.600Z,15.18
2019-03-29T16:19:38.941Z,15.16
2019-03-29T16:22:06.309Z,15.11
2019-03-29T16:24:33.073Z,15.09
2019-03-29T16:26:59.385Z,15.01
2019-03-29T16:29:25.575Z,14.96
2019-03-29T16:31:52.693Z,14.92
2019-03-29T16:34:22.364Z,14.89
2019-03-29T16:36:48.667Z,14.87
2019-03-29T16:39:15.827Z,14.82
2019-03-29T16:41:42.086Z,13.10
2019-03-29T16:44:09.452Z,14.74
2019-03-29T16:46:36.512Z,14.68
2019-03-29T16:49:07.199Z,14.63
2019-03-29T16:51:33.760Z,14.56
2019-03-29T16:53:59.874Z,14.50
2019-03-29T16:56:26.048Z,14.47
2019-03-29T16:58:52.283Z,14.44
2019-03-29T17:01:25.414Z,14.40
2019-03-29T17:03:53.968Z,14.37
2019-03-29T17:06:22.031Z,14.32
2019-03-29T17:08:48.341Z,13.06
2019-03-29T17:11:14.761Z,14.25
2019-03-29T17:13:43.455Z,14.24
2019-03-29T17:16:10.954Z,14.22
2019-03-29T17:18:40.010Z,14.15
2019-03-29T17:21:06.671Z,14.09
2019-03-29T17:23:34.772Z,14.01
2019-03-29T17:26:01.473Z,13.94
2019-03-29T17:28:33.737Z,13.87
2019-03-29T17:31:05.512Z,13.78
2019-03-29T17:33:33.045Z,13.69
2019-03-29T17:36:00.912Z,12.39
2019-03-29T17:38:27.735Z,13.52
2019-03-29T17:40:54.166Z,13.44
2019-03-29T17:43:23.496Z,13.35
2019-03-29T17:45:49.980Z,13.27
2019-03-29T17:48:16.413Z,13.16
2019-03-29T17:50:44.540Z,13.07
2019-03-29T17:53:11.478Z,12.98
2019-03-29T17:55:38.295Z,11.54
2019-03-29T17:58:04.867Z,12.77
2019-03-29T18:00:31.712Z,12.67
2019-03-29T18:02:58.098Z,12.59
2019-03-29T18:05:24.379Z,11.17
2019-03-29T18:07:51.096Z,12.39
2019-03-29T18:10:17.780Z,12.29
2019-03-29T18:12:44.015Z,12.22
2019-03-29T18:15:13.014Z,12.13
2019-03-29T18:17:40.164Z,12.08
2019-03-29T18:20:07.774Z,12.01
2019-03-29T18:22:38.044Z,11.92
2019-03-29T18:25:08.273Z,11.85
2019-03-29T18:27:34.837Z,11.76
2019-03-29T18:30:05.379Z,11.69
2019-03-29T18:32:31.617Z,11.61
2019-03-29T18:34:57.838Z,11.50
2019-03-29T18:37:24.850Z,11.44
2019-03-29T18:39:54.842Z,11.36
2019-03-29T18:42:21.160Z,11.26
2019-03-29T18:44:47.453Z,9.81
2019-03-29T18:47:15.396Z,11.03
2019-03-29T18:49:42.134Z,10.94
2019-03-29T18:52:08.392Z,10.86
2019-03-29T18:54:34.708Z,10.78
2019-03-29T18:57:02.647Z,10.70
2019-03-29T18:59:32.788Z,10.63
2019-03-29T19:02:01.436Z,10.55
2019-03-29T19:04:27.909Z,7.71
2019-03-29T19:06:54.104Z,10.39
2019-03-29T19:09:20.496Z,10.34
2019-03-29T19:11:47.019Z,10.28
2019-03-29T19:14:14.033Z,10.23
2019-03-29T19:16:58.075Z,10.15
2019-03-29T19:19:14.599Z,10.08
2019-03-29T19:21:41.620Z,10.01
2019-03-29T19:24:08.412Z,9.95
2019-03-29T19:26:34.737Z,9.89
2019-03-29T19:29:01.378Z,9.84
2019-03-29T19:31:29.684Z,9.79
2019-03-29T19:33:56.651Z,9.72
2019-03-29T19:36:23.522Z,9.68
2019-03-29T19:38:50.947Z,9.62
2019-03-29T19:41:18.304Z,9.58
2019-03-29T19:43:44.980Z,9.53
2019-03-29T19:46:12.097Z,9.49
2019-03-29T19:48:38.289Z,9.44
2019-03-29T19:51:08.374Z,9.38
2019-03-29T19:53:37.324Z,9.35
2019-03-29T19:56:03.460Z,9.29
2019-03-29T19:58:31.246Z,9.25
2019-03-29T20:00:59.378Z,9.21
2019-03-29T20:03:26.511Z,9.19
2019-03-29T20:05:52.664Z,9.13
2019-03-29T20:08:19.899Z,9.08
2019-03-29T20:10:46.217Z,9.05
2019-03-29T20:13:12.511Z,9.01
2019-03-29T20:15:38.667Z,8.98
2019-03-29T20:18:08.597Z,8.95
2019-03-29T20:20:35.434Z,8.91
2019-03-29T20:23:04.862Z,8.88
2019-03-29T20:25:31.466Z,8.86
2019-03-29T20:27:58.665Z,8.84
2019-03-29T20:30:25.808Z,8.79
2019-03-29T20:32:53.268Z,8.77
2019-03-29T20:35:19.618Z,8.74
2019-03-29T20:37:47.707Z,8.71
2019-03-29T20:40:14.000Z,8.68
2019-03-29T20:42:43.965Z,8.62
2019-03-29T20:45:11.415Z,8.59
2019-03-29T20:47:42.282Z,8.56
2019-03-29T20:50:06.614Z,8.53
2019-03-29T20:52:33.294Z,8.46
2019-03-29T20:55:03.632Z,8.37
2019-03-29T20:57:29.878Z,6.85
2019-03-29T20:59:56.670Z,8.25
2019-03-29T21:02:23.564Z,8.21
2019-03-29T21:04:51.334Z,8.17
2019-03-29T21:07:17.875Z,8.12
2019-03-29T21:09:44.561Z,8.07
2019-03-29T21:12:11.225Z,8.01
2019-03-29T21:14:37.408Z,7.97
2019-03-29T21:17:03.666Z,7.95
2019-03-29T21:19:30.541Z,6.45
2019-03-29T21:21:56.711Z,7.94
2019-03-29T21:24:23.041Z,7.90
2019-03-29T21:26:52.096Z,7.86
2019-03-29T21:29:18.842Z,6.39
2019-03-29T21:31:46.132Z,7.73
2019-03-29T21:34:12.643Z,7.63
2019-03-29T21:36:41.189Z,7.56
2019-03-29T21:39:24.554Z,7.51
2019-03-29T21:41:50.826Z,7.47
2019-03-29T21:44:17.275Z,7.44
2019-03-29T21:46:43.596Z,7.42
2019-03-29T21:49:10.147Z,7.43
2019-03-29T21:51:36.433Z,7.42
2019-03-29T21:54:03.459Z,7.41
2019-03-29T21:56:29.964Z,7.38
2019-03-29T21:58:56.575Z,7.39
2019-03-29T22:01:23.219Z,7.37
2019-03-29T22:03:49.729Z,7.35
2019-03-29T22:06:16.107Z,7.33
2019-03-29T22:08:42.998Z,7.32
2019-03-29T22:11:09.328Z,7.29
2019-03-29T22:13:35.886Z,7.28
2019-03-29T22:16:04.467Z,7.22
2019-03-29T22:18:37.880Z,7.18
2019-03-29T22:20:59.327Z,7.17
2019-03-29T22:23:27.088Z,7.13
2019-03-29T22:25:53.353Z,7.11
2019-03-29T22:28:19.806Z,7.06
2019-03-29T22:30:48.324Z,7.02
2019-03-29T22:33:14.689Z,7.00
2019-03-29T22:35:40.828Z,6.98
2019-03-29T22:38:07.652Z,6.95
2019-03-29T22:40:33.862Z,6.92
2019-03-29T22:43:00.020Z,6.89
2019-03-29T22:45:26.524Z,6.87
2019-03-29T22:47:52.663Z,6.85
2019-03-29T22:50:18.946Z,6.81
2019-03-29T22:52:45.194Z,6.78
2019-03-29T22:55:11.447Z,6.75
2019-03-29T22:57:37.603Z,6.71
2019-03-29T23:00:12.299Z,6.67
2019-03-29T23:02:39.038Z,6.64
2019-03-29T23:05:06.341Z,6.59
2019-03-29T23:07:32.467Z,6.56
2019-03-29T23:09:58.751Z,6.51
2019-03-29T23:12:25.050Z,6.47
2019-03-29T23:14:52.768Z,6.42
2019-03-29T23:17:19.023Z,6.39
2019-03-29T23:19:45.284Z,6.33
2019-03-29T23:22:11.732Z,6.29
2019-03-29T23:24:38.853Z,6.24
2019-03-29T23:27:06.941Z,6.19
2019-03-29T23:29:33.129Z,6.13
2019-03-29T23:31:59.354Z,6.08
2019-03-29T23:34:26.100Z,6.04
2019-03-29T23:36:52.549Z,6.00
2019-03-29T23:39:18.739Z,5.97
2019-03-29T23:41:45.535Z,3.27
2019-03-29T23:44:11.924Z,5.93
2019-03-29T23:46:38.278Z,5.89
2019-03-29T23:49:04.833Z,5.86
2019-03-29T23:51:31.355Z,5.81
2019-03-29T23:53:57.609Z,5.77
2019-03-29T23:56:24.264Z,4.20
2019-03-29T23:58:50.394Z,5.68
